sensor_id;sensor_type;location;lat;lon;timestamp;pressure;altitude;pressure_sealevel;temperature;humidity
79376;BME280;68846;53.150;18.136;2023-04-19T00:01:28;101928.23;;;6.23;55.08
79376;BME280;68846;53.150;18.136;2023-04-19T00:03:55;101924.30;;;6.22;55.16
79376;BME280;68846;53.150;18.136;2023-04-19T00:06:22;101923.23;;;6.18;55.09
79376;BME280;68846;53.150;18.136;2023-04-19T00:08:50;101922.77;;;6.11;55.24
79376;BME280;68846;53.150;18.136;2023-04-19T00:11:17;101920.02;;;6.05;55.13
79376;BME280;68846;53.150;18.136;2023-04-19T00:13:44;101917.58;;;6.02;55.31
79376;BME280;68846;53.150;18.136;2023-04-19T00:16:11;101906.34;;;5.91;55.26
79376;BME280;68846;53.150;18.136;2023-04-19T00:18:38;101908.09;;;5.90;55.40
79376;BME280;68846;53.150;18.136;2023-04-19T00:21:06;101906.64;;;5.86;55.59
79376;BME280;68846;53.150;18.136;2023-04-19T00:23:33;101902.33;;;5.80;55.60
79376;BME280;68846;53.150;18.136;2023-04-19T00:26:03;101900.27;;;5.74;55.66
79376;BME280;68846;53.150;18.136;2023-04-19T00:28:30;101893.73;;;5.70;55.65
79376;BME280;68846;53.150;18.136;2023-04-19T00:30:57;101879.80;;;5.60;55.98
79376;BME280;68846;53.150;18.136;2023-04-19T00:33:23;101881.23;;;5.60;55.91
79376;BME280;68846;53.150;18.136;2023-04-19T00:35:50;101880.35;;;5.57;56.05
79376;BME280;68846;53.150;18.136;2023-04-19T00:38:19;101879.98;;;5.53;56.21
79376;BME280;68846;53.150;18.136;2023-04-19T00:40:46;101876.31;;;5.50;56.41
79376;BME280;68846;53.150;18.136;2023-04-19T00:43:17;101875.20;;;5.48;56.47
79376;BME280;68846;53.150;18.136;2023-04-19T00:45:44;101871.88;;;5.45;56.76
79376;BME280;68846;53.150;18.136;2023-04-19T00:48:15;101868.27;;;5.39;56.74
79376;BME280;68846;53.150;18.136;2023-04-19T00:50:43;101864.83;;;5.36;56.96
79376;BME280;68846;53.150;18.136;2023-04-19T00:53:11;101857.14;;;5.33;56.95
79376;BME280;68846;53.150;18.136;2023-04-19T00:55:38;101860.55;;;5.31;57.13
79376;BME280;68846;53.150;18.136;2023-04-19T00:58:06;101859.02;;;5.28;57.32
79376;BME280;68846;53.150;18.136;2023-04-19T01:00:34;101854.09;;;5.25;57.49
79376;BME280;68846;53.150;18.136;2023-04-19T01:03:01;101855.96;;;5.23;57.73
79376;BME280;68846;53.150;18.136;2023-04-19T01:05:29;101850.20;;;5.17;57.80
79376;BME280;68846;53.150;18.136;2023-04-19T01:07:56;101856.45;;;5.13;57.92
79376;BME280;68846;53.150;18.136;2023-04-19T01:10:23;101856.16;;;5.10;58.36
79376;BME280;68846;53.150;18.136;2023-04-19T01:12:50;101851.31;;;5.08;58.35
79376;BME280;68846;53.150;18.136;2023-04-19T01:15:17;101850.36;;;5.06;58.74
79376;BME280;68846;53.150;18.136;2023-04-19T01:17:43;101844.79;;;5.03;58.91
79376;BME280;68846;53.150;18.136;2023-04-19T01:20:10;101846.23;;;5.01;58.98
79376;BME280;68846;53.150;18.136;2023-04-19T01:22:38;101834.34;;;5.00;59.03
79376;BME280;68846;53.150;18.136;2023-04-19T01:25:06;101834.37;;;5.01;58.96
79376;BME280;68846;53.150;18.136;2023-04-19T01:27:34;101831.27;;;5.02;59.07
79376;BME280;68846;53.150;18.136;2023-04-19T01:30:01;101826.91;;;4.95;59.33
79376;BME280;68846;53.150;18.136;2023-04-19T01:32:28;101838.66;;;4.99;59.48
79376;BME280;68846;53.150;18.136;2023-04-19T01:34:56;101814.86;;;4.89;59.77
79376;BME280;68846;53.150;18.136;2023-04-19T01:37:22;101825.30;;;4.91;59.73
79376;BME280;68846;53.150;18.136;2023-04-19T01:39:49;101820.48;;;4.89;59.65
79376;BME280;68846;53.150;18.136;2023-04-19T01:42:16;101814.41;;;4.87;59.99
79376;BME280;68846;53.150;18.136;2023-04-19T01:44:43;101815.41;;;4.82;60.14
79376;BME280;68846;53.150;18.136;2023-04-19T01:47:10;101812.35;;;4.77;60.23
79376;BME280;68846;53.150;18.136;2023-04-19T01:49:36;101811.24;;;4.73;60.31
79376;BME280;68846;53.150;18.136;2023-04-19T01:52:03;101800.87;;;4.61;60.70
79376;BME280;68846;53.150;18.136;2023-04-19T01:54:31;101811.48;;;4.61;60.79
79376;BME280;68846;53.150;18.136;2023-04-19T01:56:58;101806.83;;;4.55;60.74
79376;BME280;68846;53.150;18.136;2023-04-19T01:59:25;101803.80;;;4.50;61.11
79376;BME280;68846;53.150;18.136;2023-04-19T02:01:51;101800.20;;;4.45;61.20
79376;BME280;68846;53.150;18.136;2023-04-19T02:04:21;101795.23;;;4.40;61.35
79376;BME280;68846;53.150;18.136;2023-04-19T02:06:48;101788.45;;;4.38;61.59
79376;BME280;68846;53.150;18.136;2023-04-19T02:09:15;101785.77;;;4.39;61.50
79376;BME280;68846;53.150;18.136;2023-04-19T02:11:42;101774.31;;;4.37;61.36
79376;BME280;68846;53.150;18.136;2023-04-19T02:14:09;101789.03;;;4.45;61.60
79376;BME280;68846;53.150;18.136;2023-04-19T02:16:36;101789.06;;;4.45;61.70
79376;BME280;68846;53.150;18.136;2023-04-19T02:19:03;101787.38;;;4.47;61.66
79376;BME280;68846;53.150;18.136;2023-04-19T02:21:30;101786.12;;;4.46;61.79
79376;BME280;68846;53.150;18.136;2023-04-19T02:23:57;101785.17;;;4.42;61.99
79376;BME280;68846;53.150;18.136;2023-04-19T02:26:24;101780.86;;;4.39;62.32
79376;BME280;68846;53.150;18.136;2023-04-19T02:28:52;101776.57;;;4.37;62.28
79376;BME280;68846;53.150;18.136;2023-04-19T02:31:19;101773.16;;;4.36;62.50
79376;BME280;68846;53.150;18.136;2023-04-19T02:33:46;101771.70;;;4.37;62.82
79376;BME280;68846;53.150;18.136;2023-04-19T02:36:12;101771.18;;;4.41;62.59
79376;BME280;68846;53.150;18.136;2023-04-19T02:38:39;101770.17;;;4.42;63.24
79376;BME280;68846;53.150;18.136;2023-04-19T02:41:07;101770.15;;;4.41;63.33
79376;BME280;68846;53.150;18.136;2023-04-19T02:43:33;101762.38;;;4.43;63.63
79376;BME280;68846;53.150;18.136;2023-04-19T02:46:01;101760.92;;;4.44;63.66
79376;BME280;68846;53.150;18.136;2023-04-19T02:48:28;101760.02;;;4.47;63.87
79376;BME280;68846;53.150;18.136;2023-04-19T02:50:54;101762.16;;;4.52;63.92
79376;BME280;68846;53.150;18.136;2023-04-19T02:53:21;101748.09;;;4.56;63.90
79376;BME280;68846;53.150;18.136;2023-04-19T02:55:49;101735.42;;;4.57;63.96
79376;BME280;68846;53.150;18.136;2023-04-19T02:58:18;101738.80;;;4.66;64.07
79376;BME280;68846;53.150;18.136;2023-04-19T03:01:05;101732.95;;;4.67;64.01
79376;BME280;68846;53.150;18.136;2023-04-19T03:03:32;101720.77;;;4.64;64.22
79376;BME280;68846;53.150;18.136;2023-04-19T03:05:59;101726.78;;;4.73;64.30
79376;BME280;68846;53.150;18.136;2023-04-19T03:08:26;101723.80;;;4.75;64.54
79376;BME280;68846;53.150;18.136;2023-04-19T03:10:53;101719.61;;;4.76;64.90
79376;BME280;68846;53.150;18.136;2023-04-19T03:13:19;101714.82;;;4.78;64.88
79376;BME280;68846;53.150;18.136;2023-04-19T03:15:46;101711.83;;;4.80;65.33
79376;BME280;68846;53.150;18.136;2023-04-19T03:18:13;101706.52;;;4.82;65.55
79376;BME280;68846;53.150;18.136;2023-04-19T03:20:41;101702.64;;;4.85;65.54
79376;BME280;68846;53.150;18.136;2023-04-19T03:23:09;101701.70;;;4.91;65.67
79376;BME280;68846;53.150;18.136;2023-04-19T03:25:36;101695.05;;;4.97;65.78
79376;BME280;68846;53.150;18.136;2023-04-19T03:28:14;101695.98;;;5.06;66.16
79376;BME280;68846;53.150;18.136;2023-04-19T03:31:00;101691.73;;;5.12;65.95
79376;BME280;68846;53.150;18.136;2023-04-19T03:33:28;101692.89;;;5.21;66.05
79376;BME280;68846;53.150;18.136;2023-04-19T03:35:55;101697.25;;;5.28;66.19
79376;BME280;68846;53.150;18.136;2023-04-19T03:38:23;101703.05;;;5.32;66.54
79376;BME280;68846;53.150;18.136;2023-04-19T03:40:50;101708.23;;;5.34;67.16
79376;BME280;68846;53.150;18.136;2023-04-19T03:43:17;101707.92;;;5.36;68.07
79376;BME280;68846;53.150;18.136;2023-04-19T03:45:44;101708.54;;;5.34;68.91
79376;BME280;68846;53.150;18.136;2023-04-19T03:48:11;101699.73;;;5.33;69.40
79376;BME280;68846;53.150;18.136;2023-04-19T03:50:38;101699.60;;;5.33;70.00
79376;BME280;68846;53.150;18.136;2023-04-19T03:53:05;101693.80;;;5.33;70.20
79376;BME280;68846;53.150;18.136;2023-04-19T03:55:32;101690.84;;;5.36;70.19
79376;BME280;68846;53.150;18.136;2023-04-19T03:58:00;101690.61;;;5.43;70.27
79376;BME280;68846;53.150;18.136;2023-04-19T04:00:38;101687.55;;;5.45;70.40
79376;BME280;68846;53.150;18.136;2023-04-19T04:03:06;101684.02;;;5.47;70.63
79376;BME280;68846;53.150;18.136;2023-04-19T04:05:35;101685.69;;;5.49;70.80
79376;BME280;68846;53.150;18.136;2023-04-19T04:08:02;101687.22;;;5.52;70.97
79376;BME280;68846;53.150;18.136;2023-04-19T04:10:29;101675.90;;;5.49;70.96
79376;BME280;68846;53.150;18.136;2023-04-19T04:12:56;101684.03;;;5.55;71.60
79376;BME280;68846;53.150;18.136;2023-04-19T04:15:33;101680.12;;;5.57;71.27
79376;BME280;68846;53.150;18.136;2023-04-19T04:18:00;101688.70;;;5.61;71.48
79376;BME280;68846;53.150;18.136;2023-04-19T04:20:27;101688.16;;;5.64;72.07
79376;BME280;68846;53.150;18.136;2023-04-19T04:22:58;101689.86;;;5.63;71.96
79376;BME280;68846;53.150;18.136;2023-04-19T04:25:25;101687.80;;;5.64;72.02
79376;BME280;68846;53.150;18.136;2023-04-19T04:27:55;101689.01;;;5.68;71.76
79376;BME280;68846;53.150;18.136;2023-04-19T04:30:23;101677.27;;;5.68;72.14
79376;BME280;68846;53.150;18.136;2023-04-19T04:32:50;101686.59;;;5.76;72.24
79376;BME280;68846;53.150;18.136;2023-04-19T04:35:18;101685.11;;;5.78;71.90
79376;BME280;68846;53.150;18.136;2023-04-19T04:37:53;101682.64;;;5.77;72.48
79376;BME280;68846;53.150;18.136;2023-04-19T04:40:20;101672.48;;;5.69;72.58
79376;BME280;68846;53.150;18.136;2023-04-19T04:42:47;101682.10;;;5.74;72.06
79376;BME280;68846;53.150;18.136;2023-04-19T04:45:16;101685.14;;;5.75;72.46
79376;BME280;68846;53.150;18.136;2023-04-19T04:47:44;101686.15;;;5.78;72.33
79376;BME280;68846;53.150;18.136;2023-04-19T04:50:12;101686.31;;;5.81;72.23
79376;BME280;68846;53.150;18.136;2023-04-19T04:52:39;101690.95;;;5.83;72.49
79376;BME280;68846;53.150;18.136;2023-04-19T04:55:10;101690.21;;;5.82;71.80
79376;BME280;68846;53.150;18.136;2023-04-19T04:57:41;101691.36;;;5.81;71.78
79376;BME280;68846;53.150;18.136;2023-04-19T05:00:10;101686.19;;;5.78;71.99
79376;BME280;68846;53.150;18.136;2023-04-19T05:02:43;101687.81;;;5.76;72.12
79376;BME280;68846;53.150;18.136;2023-04-19T05:05:10;101683.23;;;5.75;71.99
79376;BME280;68846;53.150;18.136;2023-04-19T05:07:38;101679.88;;;5.75;71.90
79376;BME280;68846;53.150;18.136;2023-04-19T05:10:30;101676.64;;;5.76;72.07
79376;BME280;68846;53.150;18.136;2023-04-19T05:12:57;101673.48;;;5.80;71.83
79376;BME280;68846;53.150;18.136;2023-04-19T05:15:25;101670.39;;;5.85;71.90
79376;BME280;68846;53.150;18.136;2023-04-19T05:17:54;101667.20;;;5.91;71.82
79376;BME280;68846;53.150;18.136;2023-04-19T05:20:21;101660.93;;;5.92;71.55
79376;BME280;68846;53.150;18.136;2023-04-19T05:22:56;101671.46;;;6.04;71.29
79376;BME280;68846;53.150;18.136;2023-04-19T05:25:23;101659.90;;;6.03;71.26
79376;BME280;68846;53.150;18.136;2023-04-19T05:27:50;101667.91;;;6.11;71.34
79376;BME280;68846;53.150;18.136;2023-04-19T05:30:18;101661.64;;;6.11;71.10
79376;BME280;68846;53.150;18.136;2023-04-19T05:32:45;101654.65;;;6.11;71.09
79376;BME280;68846;53.150;18.136;2023-04-19T05:35:13;101653.64;;;6.08;70.91
79376;BME280;68846;53.150;18.136;2023-04-19T05:37:40;101652.38;;;6.07;71.21
79376;BME280;68846;53.150;18.136;2023-04-19T05:40:08;101650.16;;;6.01;71.01
79376;BME280;68846;53.150;18.136;2023-04-19T05:42:38;101642.04;;;5.95;71.20
79376;BME280;68846;53.150;18.136;2023-04-19T05:45:05;101625.77;;;5.91;71.11
79376;BME280;68846;53.150;18.136;2023-04-19T05:47:33;101634.11;;;6.01;71.03
79376;BME280;68846;53.150;18.136;2023-04-19T05:50:18;101629.27;;;6.06;70.80
79376;BME280;68846;53.150;18.136;2023-04-19T05:53:06;101623.83;;;6.06;70.37
79376;BME280;68846;53.150;18.136;2023-04-19T05:55:32;101619.19;;;6.04;70.07
79376;BME280;68846;53.150;18.136;2023-04-19T05:58:00;101619.58;;;6.05;70.40
79376;BME280;68846;53.150;18.136;2023-04-19T06:00:27;101619.70;;;6.04;70.15
79376;BME280;68846;53.150;18.136;2023-04-19T06:02:58;101616.32;;;5.99;69.91
79376;BME280;68846;53.150;18.136;2023-04-19T06:05:25;101611.40;;;6.02;70.13
79376;BME280;68846;53.150;18.136;2023-04-19T06:07:52;101624.02;;;6.10;70.02
79376;BME280;68846;53.150;18.136;2023-04-19T06:10:21;101616.29;;;6.14;69.76
79376;BME280;68846;53.150;18.136;2023-04-19T06:12:49;101625.52;;;6.17;70.20
79376;BME280;68846;53.150;18.136;2023-04-19T06:15:16;101635.12;;;6.21;70.19
79376;BME280;68846;53.150;18.136;2023-04-19T06:17:43;101646.22;;;6.26;70.29
79376;BME280;68846;53.150;18.136;2023-04-19T06:20:11;101640.30;;;6.31;69.97
79376;BME280;68846;53.150;18.136;2023-04-19T06:22:43;101631.73;;;6.31;69.72
79376;BME280;68846;53.150;18.136;2023-04-19T06:25:10;101636.80;;;6.31;69.98
79376;BME280;68846;53.150;18.136;2023-04-19T06:27:37;101639.41;;;6.30;70.00
79376;BME280;68846;53.150;18.136;2023-04-19T06:30:05;101637.50;;;6.27;70.54
79376;BME280;68846;53.150;18.136;2023-04-19T06:32:32;101634.04;;;6.24;70.81
79376;BME280;68846;53.150;18.136;2023-04-19T06:34:59;101618.25;;;6.19;70.72
79376;BME280;68846;53.150;18.136;2023-04-19T06:37:26;101633.35;;;6.20;70.73
79376;BME280;68846;53.150;18.136;2023-04-19T06:39:53;101633.69;;;6.15;71.06
79376;BME280;68846;53.150;18.136;2023-04-19T06:42:21;101622.23;;;6.13;71.11
79376;BME280;68846;53.150;18.136;2023-04-19T06:44:50;101610.39;;;6.11;71.33
79376;BME280;68846;53.150;18.136;2023-04-19T06:47:17;101610.43;;;6.16;71.48
79376;BME280;68846;53.150;18.136;2023-04-19T06:49:44;101606.67;;;6.22;71.48
79376;BME280;68846;53.150;18.136;2023-04-19T06:52:11;101601.06;;;6.26;71.44
79376;BME280;68846;53.150;18.136;2023-04-19T06:54:38;101595.91;;;6.28;71.47
79376;BME280;68846;53.150;18.136;2023-04-19T06:57:05;101603.61;;;6.32;71.38
79376;BME280;68846;53.150;18.136;2023-04-19T06:59:32;101602.08;;;6.33;71.90
79376;BME280;68846;53.150;18.136;2023-04-19T07:01:59;101598.77;;;6.33;71.90
79376;BME280;68846;53.150;18.136;2023-04-19T07:04:26;101592.75;;;6.31;72.41
79376;BME280;68846;53.150;18.136;2023-04-19T07:06:53;101587.28;;;6.26;72.32
79376;BME280;68846;53.150;18.136;2023-04-19T07:09:19;101594.04;;;6.21;72.42
79376;BME280;68846;53.150;18.136;2023-04-19T07:11:47;101611.35;;;6.25;73.03
79376;BME280;68846;53.150;18.136;2023-04-19T07:14:16;101599.84;;;6.18;73.08
79376;BME280;68846;53.150;18.136;2023-04-19T07:16:45;101605.38;;;6.21;73.16
79376;BME280;68846;53.150;18.136;2023-04-19T07:19:12;101606.86;;;6.26;73.66
79376;BME280;68846;53.150;18.136;2023-04-19T07:21:39;101604.91;;;6.30;73.45
79376;BME280;68846;53.150;18.136;2023-04-19T07:24:06;101608.60;;;6.30;73.45
79376;BME280;68846;53.150;18.136;2023-04-19T07:26:33;101605.14;;;6.27;73.62
79376;BME280;68846;53.150;18.136;2023-04-19T07:29:00;101599.11;;;6.25;73.76
79376;BME280;68846;53.150;18.136;2023-04-19T07:31:27;101602.73;;;6.24;74.05
79376;BME280;68846;53.150;18.136;2023-04-19T07:33:54;101603.62;;;6.20;73.97
79376;BME280;68846;53.150;18.136;2023-04-19T07:36:21;101600.73;;;6.14;74.61
79376;BME280;68846;53.150;18.136;2023-04-19T07:38:47;101595.23;;;6.08;74.72
79376;BME280;68846;53.150;18.136;2023-04-19T07:41:14;101580.77;;;5.98;74.89
79376;BME280;68846;53.150;18.136;2023-04-19T07:43:41;101580.38;;;6.01;74.87
79376;BME280;68846;53.150;18.136;2023-04-19T07:46:10;101574.23;;;6.00;75.03
79376;BME280;68846;53.150;18.136;2023-04-19T07:48:37;101553.52;;;5.94;74.63
79376;BME280;68846;53.150;18.136;2023-04-19T07:51:11;101575.77;;;6.03;74.91
79376;BME280;68846;53.150;18.136;2023-04-19T07:53:39;101568.52;;;6.09;75.10
79376;BME280;68846;53.150;18.136;2023-04-19T07:56:10;101564.73;;;6.11;75.04
79376;BME280;68846;53.150;18.136;2023-04-19T07:58:37;101565.55;;;6.13;74.71
79376;BME280;68846;53.150;18.136;2023-04-19T08:01:05;101569.15;;;6.16;74.49
79376;BME280;68846;53.150;18.136;2023-04-19T08:03:34;101563.67;;;6.18;74.84
79376;BME280;68846;53.150;18.136;2023-04-19T08:06:03;101563.72;;;6.20;74.74
79376;BME280;68846;53.150;18.136;2023-04-19T08:08:31;101555.15;;;6.19;74.77
79376;BME280;68846;53.150;18.136;2023-04-19T08:10:57;101551.84;;;6.20;74.46
79376;BME280;68846;53.150;18.136;2023-04-19T08:13:24;101549.45;;;6.26;74.61
79376;BME280;68846;53.150;18.136;2023-04-19T08:15:52;101552.95;;;6.34;74.31
79376;BME280;68846;53.150;18.136;2023-04-19T08:18:19;101555.66;;;6.40;74.65
79376;BME280;68846;53.150;18.136;2023-04-19T08:20:46;101553.45;;;6.46;74.50
79376;BME280;68846;53.150;18.136;2023-04-19T08:23:13;101540.66;;;6.45;74.23
79376;BME280;68846;53.150;18.136;2023-04-19T08:25:40;101546.36;;;6.56;74.27
79376;BME280;68846;53.150;18.136;2023-04-19T08:28:07;101544.95;;;6.60;74.19
79376;BME280;68846;53.150;18.136;2023-04-19T08:30:34;101542.39;;;6.62;74.30
79376;BME280;68846;53.150;18.136;2023-04-19T08:33:01;101548.35;;;6.62;73.95
79376;BME280;68846;53.150;18.136;2023-04-19T08:35:28;101547.47;;;6.62;74.45
79376;BME280;68846;53.150;18.136;2023-04-19T08:37:55;101542.88;;;6.57;74.59
79376;BME280;68846;53.150;18.136;2023-04-19T08:40:22;101552.37;;;6.66;74.71
79376;BME280;68846;53.150;18.136;2023-04-19T08:42:49;101550.36;;;6.73;74.64
79376;BME280;68846;53.150;18.136;2023-04-19T08:45:18;101542.89;;;6.70;74.85
79376;BME280;68846;53.150;18.136;2023-04-19T08:47:47;101549.12;;;6.77;74.96
79376;BME280;68846;53.150;18.136;2023-04-19T08:50:15;101550.73;;;6.82;75.24
79376;BME280;68846;53.150;18.136;2023-04-19T08:52:43;101553.36;;;6.87;74.96
79376;BME280;68846;53.150;18.136;2023-04-19T08:55:11;101534.77;;;6.86;74.87
79376;BME280;68846;53.150;18.136;2023-04-19T08:57:38;101530.98;;;6.88;74.59
79376;BME280;68846;53.150;18.136;2023-04-19T09:00:06;101535.17;;;6.92;74.55
79376;BME280;68846;53.150;18.136;2023-04-19T09:02:51;101521.63;;;6.85;74.64
79376;BME280;68846;53.150;18.136;2023-04-19T09:05:20;101526.93;;;6.91;74.43
79376;BME280;68846;53.150;18.136;2023-04-19T09:07:47;101526.13;;;6.93;75.09
79376;BME280;68846;53.150;18.136;2023-04-19T09:10:17;101522.98;;;6.98;75.03
79376;BME280;68846;53.150;18.136;2023-04-19T09:13:04;101519.91;;;7.05;74.91
79376;BME280;68846;53.150;18.136;2023-04-19T09:15:38;101516.08;;;7.10;75.09
79376;BME280;68846;53.150;18.136;2023-04-19T09:18:08;101508.61;;;7.16;74.98
79376;BME280;68846;53.150;18.136;2023-04-19T09:20:40;101506.70;;;7.21;75.09
79376;BME280;68846;53.150;18.136;2023-04-19T09:23:09;101512.48;;;7.26;74.79
79376;BME280;68846;53.150;18.136;2023-04-19T09:25:39;101506.84;;;7.29;74.68
79376;BME280;68846;53.150;18.136;2023-04-19T09:28:13;101509.65;;;7.30;74.38
79376;BME280;68846;53.150;18.136;2023-04-19T09:30:41;101505.40;;;7.28;74.49
79376;BME280;68846;53.150;18.136;2023-04-19T09:33:08;101505.61;;;7.29;74.48
79376;BME280;68846;53.150;18.136;2023-04-19T09:35:47;101499.91;;;7.32;74.40
79376;BME280;68846;53.150;18.136;2023-04-19T09:38:15;101507.23;;;7.35;74.30
79376;BME280;68846;53.150;18.136;2023-04-19T09:40:42;101506.26;;;7.37;74.12
79376;BME280;68846;53.150;18.136;2023-04-19T09:43:10;101506.33;;;7.39;74.19
79376;BME280;68846;53.150;18.136;2023-04-19T09:45:40;101499.72;;;7.41;74.01
79376;BME280;68846;53.150;18.136;2023-04-19T09:48:10;101503.93;;;7.41;73.96
79376;BME280;68846;53.150;18.136;2023-04-19T09:50:55;101490.84;;;7.38;74.34
79376;BME280;68846;53.150;18.136;2023-04-19T09:53:23;101500.21;;;7.44;73.99
79376;BME280;68846;53.150;18.136;2023-04-19T09:55:50;101499.48;;;7.43;73.93
79376;BME280;68846;53.150;18.136;2023-04-19T09:58:21;101498.37;;;7.47;74.06
79376;BME280;68846;53.150;18.136;2023-04-19T10:00:48;101496.34;;;7.54;73.98
79376;BME280;68846;53.150;18.136;2023-04-19T10:03:18;101486.42;;;7.56;73.89
79376;BME280;68846;53.150;18.136;2023-04-19T10:05:45;101481.80;;;7.64;73.91
79376;BME280;68846;53.150;18.136;2023-04-19T10:08:12;101495.14;;;7.74;73.42
79376;BME280;68846;53.150;18.136;2023-04-19T10:10:40;101488.07;;;7.73;73.46
79376;BME280;68846;53.150;18.136;2023-04-19T10:13:10;101483.67;;;7.67;72.90
79376;BME280;68846;53.150;18.136;2023-04-19T10:15:40;101486.57;;;7.70;72.92
79376;BME280;68846;53.150;18.136;2023-04-19T10:18:10;101485.10;;;7.68;72.80
79376;BME280;68846;53.150;18.136;2023-04-19T10:20:57;101481.80;;;7.69;72.82
79376;BME280;68846;53.150;18.136;2023-04-19T10:23:28;101486.99;;;7.72;73.30
79376;BME280;68846;53.150;18.136;2023-04-19T10:25:56;101483.98;;;7.76;72.91
79376;BME280;68846;53.150;18.136;2023-04-19T10:28:27;101483.64;;;7.81;73.13
79376;BME280;68846;53.150;18.136;2023-04-19T10:31:01;101482.42;;;7.87;72.43
79376;BME280;68846;53.150;18.136;2023-04-19T10:33:36;101478.23;;;7.92;72.93
79376;BME280;68846;53.150;18.136;2023-04-19T10:36:08;101460.92;;;7.89;72.71
79376;BME280;68846;53.150;18.136;2023-04-19T10:38:40;101474.57;;;8.03;72.72
79376;BME280;68846;53.150;18.136;2023-04-19T10:41:09;101468.98;;;8.09;72.62
79376;BME280;68846;53.150;18.136;2023-04-19T10:48:56;101470.09;;;8.26;72.36
79376;BME280;68846;53.150;18.136;2023-04-19T10:53:56;101465.88;;;8.32;71.93
79376;BME280;68846;53.150;18.136;2023-04-19T11:07:16;101481.86;;;8.32;71.32
79376;BME280;68846;53.150;18.136;2023-04-19T11:09:53;101488.83;;;8.25;71.17
79376;BME280;68846;53.150;18.136;2023-04-19T11:12:20;101487.52;;;8.18;70.97
79376;BME280;68846;53.150;18.136;2023-04-19T11:14:50;101493.55;;;8.10;71.75
79376;BME280;68846;53.150;18.136;2023-04-19T11:17:22;101494.21;;;8.03;71.35
79376;BME280;68846;53.150;18.136;2023-04-19T11:19:56;101488.96;;;7.98;71.64
79376;BME280;68846;53.150;18.136;2023-04-19T11:22:39;101493.32;;;7.92;71.25
79376;BME280;68846;53.150;18.136;2023-04-19T11:27:44;101499.13;;;7.88;71.73
79376;BME280;68846;53.150;18.136;2023-04-19T11:30:16;101496.50;;;7.88;71.61
79376;BME280;68846;53.150;18.136;2023-04-19T11:32:46;101500.55;;;7.84;71.32
79376;BME280;68846;53.150;18.136;2023-04-19T11:35:14;101495.44;;;7.78;70.65
79376;BME280;68846;53.150;18.136;2023-04-19T11:37:44;101495.63;;;7.68;71.10
79376;BME280;68846;53.150;18.136;2023-04-19T11:40:18;101496.61;;;7.61;71.69
79376;BME280;68846;53.150;18.136;2023-04-19T11:42:46;101496.02;;;7.55;71.28
79376;BME280;68846;53.150;18.136;2023-04-19T11:45:24;101499.06;;;7.51;71.40
79376;BME280;68846;53.150;18.136;2023-04-19T11:47:52;101498.90;;;7.51;71.97
79376;BME280;68846;53.150;18.136;2023-04-19T11:50:29;101496.05;;;7.56;71.98
79376;BME280;68846;53.150;18.136;2023-04-19T11:52:58;101501.80;;;7.60;71.83
79376;BME280;68846;53.150;18.136;2023-04-19T11:55:25;101499.31;;;7.59;71.46
79376;BME280;68846;53.150;18.136;2023-04-19T11:57:52;101507.08;;;7.60;71.65
79376;BME280;68846;53.150;18.136;2023-04-19T12:00:26;101507.56;;;7.59;71.66
79376;BME280;68846;53.150;18.136;2023-04-19T12:02:54;101508.41;;;7.53;71.63
79376;BME280;68846;53.150;18.136;2023-04-19T12:05:22;101511.41;;;7.54;72.36
79376;BME280;68846;53.150;18.136;2023-04-19T12:08:02;101512.70;;;7.56;73.09
79376;BME280;68846;53.150;18.136;2023-04-19T12:10:30;101506.88;;;7.55;72.82
79376;BME280;68846;53.150;18.136;2023-04-19T12:12:57;101507.73;;;7.54;72.97
79376;BME280;68846;53.150;18.136;2023-04-19T12:15:45;101508.38;;;7.52;73.43
79376;BME280;68846;53.150;18.136;2023-04-19T12:18:12;101500.16;;;7.48;73.44
79376;BME280;68846;53.150;18.136;2023-04-19T12:20:45;101516.58;;;7.56;73.32
79376;BME280;68846;53.150;18.136;2023-04-19T12:23:13;101519.35;;;7.55;73.49
79376;BME280;68846;53.150;18.136;2023-04-19T12:25:43;101508.54;;;7.51;73.41
79376;BME280;68846;53.150;18.136;2023-04-19T12:28:11;101525.59;;;7.58;73.19
79376;BME280;68846;53.150;18.136;2023-04-19T12:30:39;101509.81;;;7.58;73.50
79376;BME280;68846;53.150;18.136;2023-04-19T12:33:07;101516.58;;;7.71;73.74
79376;BME280;68846;53.150;18.136;2023-04-19T12:35:34;101514.21;;;7.73;73.56
79376;BME280;68846;53.150;18.136;2023-04-19T12:38:01;101506.25;;;7.66;73.10
79376;BME280;68846;53.150;18.136;2023-04-19T12:40:29;101521.11;;;7.65;73.10
79376;BME280;68846;53.150;18.136;2023-04-19T12:42:56;101509.88;;;7.64;73.55
79376;BME280;68846;53.150;18.136;2023-04-19T12:45:22;101518.91;;;7.77;73.40
79376;BME280;68846;53.150;18.136;2023-04-19T12:47:49;101516.77;;;7.81;73.00
79376;BME280;68846;53.150;18.136;2023-04-19T12:50:16;101516.89;;;7.89;73.05
79376;BME280;68846;53.150;18.136;2023-04-19T12:52:44;101509.29;;;7.92;73.27
79376;BME280;68846;53.150;18.136;2023-04-19T12:55:11;101523.52;;;8.08;73.21
79376;BME280;68846;53.150;18.136;2023-04-19T12:57:38;101520.85;;;8.17;72.94
79376;BME280;68846;53.150;18.136;2023-04-19T13:00:06;101519.34;;;8.20;72.58
79376;BME280;68846;53.150;18.136;2023-04-19T13:02:33;101517.63;;;8.21;72.61
79376;BME280;68846;53.150;18.136;2023-04-19T13:05:01;101517.17;;;8.23;72.67
79376;BME280;68846;53.150;18.136;2023-04-19T13:07:30;101520.70;;;8.23;72.53
79376;BME280;68846;53.150;18.136;2023-04-19T13:09:57;101506.36;;;8.15;72.51
79376;BME280;68846;53.150;18.136;2023-04-19T13:12:24;101521.59;;;8.13;72.22
79376;BME280;68846;53.150;18.136;2023-04-19T13:14:51;101528.48;;;8.05;72.20
79376;BME280;68846;53.150;18.136;2023-04-19T13:17:19;101527.71;;;7.97;72.06
79376;BME280;68846;53.150;18.136;2023-04-19T13:19:46;101526.04;;;7.95;72.37